Time;durP1;ratioP1;P1;durP2;ratioP2;P2;SDS_P1;SDS_P2;PMS_P1;PMS_P2;Temp;Humidity;BMP_temperature;BMP_pressure;BME280_temperature;BME280_humidity;BME280_pressure;Samples;Min_cycle;Max_cycle;Signal;HPM_P1;HPM_P2
2021/12/17 00:00:01;;;;;;;112.83;41.17;;;;;;;12.11;62.61;102803.50;10523240;28;20217;-82
2021/12/17 00:05:17;;;;;;;98.57;37.17;;;;;;;12.10;62.20;102798.97;10509695;28;20263;-83
2021/12/17 00:10:19;;;;;;;110.70;39.00;;;;;;;12.16;62.27;102798.75;10504210;28;20207;-84
2021/12/17 00:15:21;;;;;;;99.70;36.30;;;;;;;12.19;61.89;102794.50;10511442;28;20295;-83
2021/12/17 00:20:49;;;;;;;98.60;38.50;;;;;;;11.89;63.07;102794.34;10511582;28;20203;-81
2021/12/17 00:52:23;;;;;;;116.70;41.53;;;;;;;12.21;62.19;102781.00;10514781;28;20203;-82
2021/12/17 00:57:30;;;;;;;116.43;43.80;;;;;;;12.24;61.65;102790.88;10530484;28;20194;-81
2021/12/17 01:02:34;;;;;;;122.70;43.17;;;;;;;12.04;62.33;102788.81;10512614;28;20292;-82
2021/12/17 01:07:41;;;;;;;119.67;42.33;;;;;;;12.09;62.13;102783.19;10512190;28;20275;-81
2021/12/17 01:12:45;;;;;;;102.50;38.93;;;;;;;11.98;62.51;102779.47;10509918;28;20503;-80
2021/12/17 01:18:12;;;;;;;113.87;40.87;;;;;;;11.85;63.08;102772.34;10500837;28;20207;-81
2021/12/17 01:45:16;;;;;;;120.23;39.47;;;;;;;11.94;62.58;102780.28;10526394;28;20507;-81
2021/12/17 01:55:49;;;;;;;101.23;37.67;;;;;;;11.68;63.71;102782.91;10510442;28;20327;-81
2021/12/17 02:00:52;;;;;;;109.40;38.47;;;;;;;11.99;62.24;102783.13;10509396;28;20198;-81
2021/12/17 02:05:54;;;;;;;128.23;41.90;;;;;;;12.07;62.12;102779.78;10523767;28;20222;-80
2021/12/17 02:11:37;;;;;;;126.67;42.03;;;;;;;12.04;62.45;102786.00;10492169;28;20268;-82
2021/12/17 02:32:19;;;;;;;127.73;43.27;;;;;;;12.15;62.03;102787.75;10485353;28;20203;-83
2021/12/17 02:37:25;;;;;;;131.47;45.40;;;;;;;12.14;62.16;102786.03;10482151;28;20534;-82
2021/12/17 02:48:17;;;;;;;137.13;44.17;;;;;;;12.05;62.33;102782.03;10479930;28;20219;-81
2021/12/17 02:53:20;;;;;;;163.70;49.20;;;;;;;11.73;63.47;102780.16;10490287;28;20203;-81
2021/12/17 02:58:26;;;;;;;164.50;51.50;;;;;;;11.99;62.75;102783.13;10480266;28;20195;-81
2021/12/17 03:03:31;;;;;;;153.70;49.80;;;;;;;12.04;62.48;102780.34;10480240;28;20231;-84
2021/12/17 03:08:33;;;;;;;132.13;44.20;;;;;;;12.30;61.66;102782.19;10472544;28;20223;-83
2021/12/17 03:13:38;;;;;;;146.77;46.20;;;;;;;12.09;62.09;102777.53;10504374;28;20214;-84
2021/12/17 03:23:52;;;;;;;151.70;47.90;;;;;;;12.04;62.54;102780.34;10525342;28;20255;-84
2021/12/17 03:29:03;;;;;;;157.07;49.20;;;;;;;11.76;63.37;102778.75;10515251;28;20222;-84
2021/12/17 03:34:19;;;;;;;164.23;49.43;;;;;;;12.10;61.97;102773.63;10523547;28;20198;-83
2021/12/17 03:39:26;;;;;;;148.70;49.17;;;;;;;11.92;62.94;102774.06;10498192;28;20202;-82
2021/12/17 03:44:32;;;;;;;153.37;48.57;;;;;;;12.08;62.19;102764.56;10505048;28;20270;-82
2021/12/17 03:49:36;;;;;;;136.87;45.30;;;;;;;12.01;62.59;102772.44;10522610;28;20572;-84
2021/12/17 03:54:40;;;;;;;144.87;49.03;;;;;;;11.62;64.44;102772.72;10526573;28;20244;-82
2021/12/17 03:59:43;;;;;;;171.23;50.20;;;;;;;10.95;66.40;102767.59;10516581;28;20198;-83
2021/12/17 04:04:47;;;;;;;166.00;50.43;;;;;;;11.93;63.22;102772.94;10512308;28;20287;-83
2021/12/17 04:10:08;;;;;;;162.47;49.67;;;;;;;11.97;62.90;102774.94;10517399;28;20506;-82
2021/12/17 04:15:14;;;;;;;167.63;49.93;;;;;;;11.96;63.10;102780.84;10497529;28;20248;-83
2021/12/17 04:20:16;;;;;;;140.57;46.00;;;;;;;12.07;62.83;102780.63;10509082;28;20220;-83
2021/12/17 04:25:19;;;;;;;195.17;47.83;;;;;;;11.70;64.10;102769.41;10547677;28;20190;-80
2021/12/17 04:30:22;;;;;;;128.60;44.13;;;;;;;11.89;63.42;102768.97;10529069;28;20276;-81
2021/12/17 04:35:25;;;;;;;140.70;47.40;;;;;;;11.84;63.45;102781.91;10521065;28;20203;-81
2021/12/17 04:40:30;;;;;;;148.77;45.87;;;;;;;12.06;62.98;102787.38;10512773;28;20276;-82
2021/12/17 04:45:39;;;;;;;162.23;47.27;;;;;;;11.94;63.15;102780.28;10512049;28;20652;-81
2021/12/17 05:01:27;;;;;;;108.83;38.60;;;;;;;11.65;64.35;102789.09;10526626;28;20631;-82
2021/12/17 05:06:31;;;;;;;121.63;43.03;;;;;;;11.48;64.46;102791.19;10515681;28;20515;-81
2021/12/17 05:22:12;;;;;;;123.80;41.43;;;;;;;11.61;64.50;102799.16;10508429;28;20477;-80
2021/12/17 05:27:15;;;;;;;127.77;39.43;;;;;;;11.82;63.71;102795.41;10509743;28;20222;-80
2021/12/17 05:32:27;;;;;;;107.37;38.17;;;;;;;11.65;64.25;102799.53;10515107;28;20199;-80
2021/12/17 05:37:35;;;;;;;109.20;38.13;;;;;;;11.53;64.54;102808.09;10516726;28;20264;-80
2021/12/17 05:42:39;;;;;;;113.07;37.93;;;;;;;11.76;63.60;102801.28;10521673;28;20260;-81
2021/12/17 05:47:50;;;;;;;132.50;42.17;;;;;;;11.57;64.27;102803.63;10530967;28;20226;-80
2021/12/17 05:52:53;;;;;;;106.03;36.40;;;;;;;11.72;63.48;102802.94;10517865;28;20275;-81
2021/12/17 05:57:56;;;;;;;115.40;35.33;;;;;;;10.93;66.27;102792.31;10525272;28;20214;-81
2021/12/17 06:02:59;;;;;;;95.97;34.17;;;;;;;11.35;65.02;102788.81;10523335;28;20259;-81
2021/12/17 06:08:16;;;;;;;94.67;34.10;;;;;;;11.38;64.66;102789.13;10514599;28;20244;-81
2021/12/17 06:13:18;;;;;;;74.93;28.57;;;;;;;11.64;63.94;102773.31;10513920;28;20240;-80
2021/12/17 06:18:21;;;;;;;66.97;27.00;;;;;;;11.34;64.91;102776.69;10520888;28;20198;-80
2021/12/17 06:23:23;;;;;;;49.33;23.30;;;;;;;10.89;66.54;102767.78;10528621;28;20350;-81
2021/12/17 06:28:27;;;;;;;50.43;22.90;;;;;;;10.41;67.54;102767.50;10531405;28;20227;-79
2021/12/17 06:33:34;;;;;;;48.30;23.70;;;;;;;10.27;68.29;102759.72;10519138;28;20265;-82
2021/12/17 06:39:04;;;;;;;48.53;22.30;;;;;;;10.94;65.38;102757.47;10502208;28;20664;-81
2021/12/17 06:44:14;;;;;;;54.33;23.07;;;;;;;11.10;65.33;102770.56;10508527;28;20211;-80
2021/12/17 06:49:25;;;;;;;54.73;22.53;;;;;;;10.85;65.85;102766.66;10520170;28;20275;-80
2021/12/17 07:00:19;;;;;;;51.40;22.77;;;;;;;11.03;65.31;102769.91;10508003;28;20187;-81
2021/12/17 07:06:04;;;;;;;47.20;21.40;;;;;;;11.27;64.39;102780.81;10510637;28;20226;-80
2021/12/17 07:11:49;;;;;;;54.23;22.40;;;;;;;11.48;63.79;102777.94;10522133;28;20650;-81
2021/12/17 07:43:37;;;;;;;29.37;15.63;;;;;;;11.18;65.07;102802.13;10510228;28;20619;-81
2021/12/17 07:48:47;;;;;;;35.13;15.87;;;;;;;11.22;64.85;102806.97;10523739;28;20495;-80
2021/12/17 07:53:50;;;;;;;36.77;17.23;;;;;;;11.45;63.75;102817.03;10500352;28;20265;-81
2021/12/17 07:58:55;;;;;;;39.97;19.67;;;;;;;10.82;65.95;102824.25;10521774;28;20210;-81
2021/12/17 08:03:58;;;;;;;41.73;19.03;;;;;;;10.99;65.14;102827.84;10509786;28;20222;-80
2021/12/17 08:09:24;;;;;;;49.13;19.90;;;;;;;10.81;65.83;102831.00;10491968;28;20254;-81
2021/12/17 08:14:29;;;;;;;46.13;20.90;;;;;;;11.37;63.95;102834.44;10501946;28;20568;-80
2021/12/17 08:29:55;;;;;;;40.33;18.17;;;;;;;11.36;63.73;102841.16;10502867;28;20283;-80
2021/12/17 08:34:58;;;;;;;45.03;21.77;;;;;;;11.57;63.07;102842.19;10499859;28;20268;-81
2021/12/17 08:40:01;;;;;;;47.30;21.03;;;;;;;11.54;62.95;102852.03;10503368;28;20332;-80
2021/12/17 08:45:17;;;;;;;46.10;21.83;;;;;;;11.60;63.43;102848.16;10504010;28;20204;-80
2021/12/17 08:50:22;;;;;;;41.67;19.23;;;;;;;11.35;64.42;102867.63;10523551;28;20291;-81
2021/12/17 08:55:24;;;;;;;35.17;15.33;;;;;;;11.36;63.99;102870.16;10514109;28;20214;-81
2021/12/17 09:00:28;;;;;;;25.13;13.03;;;;;;;11.57;62.53;102870.34;10494026;28;20242;-80
2021/12/17 09:05:38;;;;;;;22.53;12.83;;;;;;;11.05;65.08;102868.13;10505789;28;20226;-80
2021/12/17 09:10:45;;;;;;;27.07;14.03;;;;;;;11.61;62.68;102861.13;10489053;28;20231;-80
2021/12/17 09:15:48;;;;;;;27.03;14.67;;;;;;;11.22;64.02;102868.03;10449187;28;1049564;-80
2021/12/17 09:21:03;;;;;;;28.73;17.27;;;;;;;11.51;62.88;102875.09;10483054;28;20202;-81
2021/12/17 09:26:32;;;;;;;31.50;17.60;;;;;;;11.56;62.76;102871.47;10487223;28;20235;-80
2021/12/17 09:31:36;;;;;;;32.70;18.40;;;;;;;11.74;62.32;102865.47;10478171;28;20250;-80
2021/12/17 09:36:38;;;;;;;33.07;17.00;;;;;;;11.60;62.80;102870.69;10494451;28;20511;-80
2021/12/17 09:41:43;;;;;;;35.87;19.10;;;;;;;11.61;62.22;102866.75;10513540;28;20202;-80
2021/12/17 09:46:46;;;;;;;33.07;17.33;;;;;;;11.42;63.32;102862.59;10491540;28;20238;-80
2021/12/17 09:51:51;;;;;;;34.33;18.07;;;;;;;11.50;62.91;102871.44;10510801;28;20251;-80
2021/12/17 09:56:53;;;;;;;25.17;14.93;;;;;;;11.17;64.21;102870.78;10490985;28;20192;-80
2021/12/17 10:01:56;;;;;;;23.87;13.63;;;;;;;11.50;63.40;102864.94;10495344;28;20219;-80
2021/12/17 10:07:24;;;;;;;17.43;11.60;;;;;;;10.96;64.55;102876.19;10526476;28;20203;-79
2021/12/17 10:12:32;;;;;;;13.13;8.90;;;;;;;11.10;64.10;102877.47;10481304;28;20206;-80
2021/12/17 10:17:35;;;;;;;12.40;8.37;;;;;;;10.88;64.25;102879.44;10490113;28;20226;-80
2021/12/17 10:22:37;;;;;;;10.07;6.93;;;;;;;10.94;64.52;102878.41;10493940;28;20195;-81
2021/12/17 10:27:42;;;;;;;12.57;7.93;;;;;;;11.69;63.23;102876.69;10497479;28;20207;-80
2021/12/17 10:32:48;;;;;;;10.30;7.00;;;;;;;11.10;64.48;102880.28;10474381;28;20210;-81
2021/12/17 10:38:00;;;;;;;14.10;8.83;;;;;;;11.22;63.52;102899.00;10540537;28;20206;-79
2021/12/17 10:43:14;;;;;;;14.93;9.13;;;;;;;11.53;62.90;102898.19;10509097;28;20195;-80
2021/12/17 10:53:24;;;;;;;18.67;9.60;;;;;;;11.79;61.46;102891.69;10501383;28;20713;-81
2021/12/17 10:58:27;;;;;;;15.97;8.23;;;;;;;11.99;59.87;102891.03;10525414;28;20297;-80
2021/12/17 11:03:29;;;;;;;6.83;4.93;;;;;;;11.29;61.77;102899.63;10489677;28;20670;-80
2021/12/17 11:08:34;;;;;;;6.10;4.93;;;;;;;11.10;62.61;102891.56;10496332;28;20708;-80
2021/12/17 11:13:51;;;;;;;9.93;6.70;;;;;;;11.12;62.69;102885.66;10481673;28;20266;-81
2021/12/17 11:18:55;;;;;;;10.33;6.40;;;;;;;11.82;61.05;102879.06;10493653;28;20488;-81
2021/12/17 11:23:58;;;;;;;7.47;4.80;;;;;;;11.78;61.16;102875.09;10492289;28;20195;-80
2021/12/17 11:29:03;;;;;;;7.37;4.83;;;;;;;11.72;61.34;102874.19;10479119;28;20211;-80
2021/12/17 11:34:05;;;;;;;6.63;4.00;;;;;;;11.43;61.59;102881.19;10502858;28;20264;-80
2021/12/17 11:39:22;;;;;;;6.30;3.13;;;;;;;11.96;59.66;102879.44;10475369;28;20583;-81
2021/12/17 11:44:29;;;;;;;5.37;3.60;;;;;;;11.23;61.66;102864.97;10509564;28;20234;-81
2021/12/17 11:49:37;;;;;;;5.93;4.40;;;;;;;11.27;60.95;102870.88;10505117;28;20631;-81
2021/12/17 11:54:39;;;;;;;6.30;4.33;;;;;;;11.92;58.69;102869.84;10507337;28;20229;-82
2021/12/17 11:59:44;;;;;;;10.20;5.33;;;;;;;11.67;59.98;102876.94;10507679;28;20203;-80
2021/12/17 12:04:51;;;;;;;6.07;3.97;;;;;;;10.96;61.26;102867.75;10511442;28;20287;-80
2021/12/17 12:10:05;;;;;;;4.17;3.03;;;;;;;11.39;59.94;102874.41;10503915;28;20227;-80
2021/12/17 12:15:23;;;;;;;4.27;2.87;;;;;;;11.58;58.74;102872.91;10517501;28;20219;-81
2021/12/17 12:20:55;;;;;;;3.17;2.60;;;;;;;11.32;58.88;102879.41;10514796;28;20548;-80
2021/12/17 12:26:08;;;;;;;6.00;3.90;;;;;;;10.92;58.85;102880.63;10505469;28;20215;-81
2021/12/17 12:31:19;;;;;;;5.40;4.17;;;;;;;10.60;59.11;102880.47;10517791;28;20226;-80
2021/12/17 12:36:58;;;;;;;6.77;4.40;;;;;;;11.17;58.46;102870.78;10535492;28;20191;-82
2021/12/17 12:42:11;;;;;;;6.03;4.73;;;;;;;11.48;57.02;102872.81;10490213;28;20203;-81
2021/12/17 12:47:20;;;;;;;6.80;4.57;;;;;;;11.12;58.40;102869.63;10491834;28;20591;-81
2021/12/17 12:52:30;;;;;;;8.07;4.90;;;;;;;11.58;56.88;102867.28;10523404;28;20630;-81
2021/12/17 12:57:37;;;;;;;6.10;4.57;;;;;;;11.39;55.74;102860.34;10515301;28;20261;-80
2021/12/17 13:02:39;;;;;;;5.50;4.83;;;;;;;11.47;55.50;102857.88;10515694;28;20222;-80
2021/12/17 13:07:50;;;;;;;6.13;3.93;;;;;;;11.93;52.77;102857.44;10496056;28;20229;-80
2021/12/17 13:13:15;;;;;;;4.00;3.60;;;;;;;11.42;53.80;102854.16;10513840;28;20550;-81
2021/12/17 13:23:23;;;;;;;5.17;4.07;;;;;;;11.18;55.43;102849.97;10509270;28;20264;-81
2021/12/17 13:28:25;;;;;;;5.60;3.97;;;;;;;10.91;55.68;102847.13;10502384;28;20202;-82
2021/12/17 13:33:36;;;;;;;7.30;6.07;;;;;;;11.64;52.35;102842.88;10495827;28;20240;-80
2021/12/17 13:38:41;;;;;;;10.83;6.83;;;;;;;11.90;51.76;102853.22;10525724;28;20576;-80
2021/12/17 13:43:44;;;;;;;7.30;6.23;;;;;;;11.90;50.69;102838.28;10509190;28;20260;-81
2021/12/17 13:48:46;;;;;;;7.50;5.80;;;;;;;11.87;50.76;102836.84;10513066;28;20719;-80
2021/12/17 13:53:48;;;;;;;6.30;4.47;;;;;;;11.89;49.73;102845.03;10504989;28;20207;-82
2021/12/17 13:59:10;;;;;;;5.57;4.67;;;;;;;11.90;50.62;102838.28;10506840;28;20265;-82
2021/12/17 14:04:13;;;;;;;6.30;3.77;;;;;;;11.68;49.22;102842.03;10511975;28;20268;-81
2021/12/17 14:09:16;;;;;;;4.27;3.53;;;;;;;11.90;48.90;102832.66;10512900;28;20630;-82
2021/12/17 14:14:27;;;;;;;4.90;4.33;;;;;;;11.51;50.12;102838.50;10486745;28;20222;-82
2021/12/17 14:19:46;;;;;;;4.20;3.20;;;;;;;11.55;51.10;102819.94;10506396;28;20241;-83
2021/12/17 14:24:49;;;;;;;5.20;3.03;;;;;;;11.82;49.18;102834.84;10487347;28;20217;-81
2021/12/17 14:30:02;;;;;;;6.83;4.20;;;;;;;11.57;50.79;102826.16;10509565;28;20295;-81
2021/12/17 14:35:04;;;;;;;6.67;5.33;;;;;;;11.66;50.64;102835.81;10508547;28;20230;-81
2021/12/17 14:40:25;;;;;;;7.47;4.93;;;;;;;11.99;49.24;102816.94;10508730;28;20225;-82
2021/12/17 14:45:35;;;;;;;7.17;5.47;;;;;;;11.66;51.39;102840.59;10504072;28;20207;-82
2021/12/17 15:02:01;;;;;;;5.67;3.80;;;;;;;11.05;52.72;102829.59;10506745;28;20303;-82
2021/12/17 15:06:59;;;;;;;5.47;3.67;;;;;;;11.33;51.48;102828.47;10504354;28;20296;-81
2021/12/17 15:12:12;;;;;;;7.87;4.63;;;;;;;11.32;51.10;102835.22;10503667;28;20970;-81
2021/12/17 15:17:14;;;;;;;6.33;4.17;;;;;;;11.53;49.80;102844.69;10505550;28;20234;-81
2021/12/17 15:22:17;;;;;;;6.43;4.63;;;;;;;11.48;49.55;102844.66;10526971;28;20472;-81
2021/12/17 15:27:19;;;;;;;6.27;4.13;;;;;;;10.33;53.10;102860.72;10502256;28;20496;-81
2021/12/17 15:32:21;;;;;;;5.23;4.30;;;;;;;10.71;51.86;102850.56;10514704;28;20275;-81
2021/12/17 15:37:23;;;;;;;6.57;4.60;;;;;;;10.66;51.44;102853.31;10507640;28;20206;-80
2021/12/17 15:42:26;;;;;;;6.77;4.53;;;;;;;10.79;50.06;102852.91;10517903;28;20198;-81
2021/12/17 15:47:28;;;;;;;7.17;4.40;;;;;;;10.39;52.40;102853.19;10529388;28;20202;-82
2021/12/17 15:52:33;;;;;;;7.07;5.33;;;;;;;10.86;51.46;102852.72;10504183;28;20285;-82
2021/12/17 15:57:35;;;;;;;7.27;4.50;;;;;;;10.97;50.63;102846.94;10503996;28;20256;-80
2021/12/17 16:02:40;;;;;;;6.57;4.50;;;;;;;10.79;51.34;102841.66;10520884;28;20638;-81
2021/12/17 16:07:45;;;;;;;6.00;4.80;;;;;;;10.95;50.32;102848.31;10460534;28;20885;-79
2021/12/17 16:23:16;;;;;;;10.00;6.50;;;;;;;10.94;51.07;102847.47;10486788;28;20273;-80
2021/12/17 16:28:19;;;;;;;6.67;5.17;;;;;;;10.76;51.41;102844.97;10487638;28;20229;-84
2021/12/17 16:33:21;;;;;;;8.43;4.70;;;;;;;10.76;51.21;102850.59;10478676;28;20311;-82
2021/12/17 16:38:23;;;;;;;6.57;4.90;;;;;;;10.91;51.27;102862.06;10480072;28;20595;-81
2021/12/17 16:43:26;;;;;;;6.57;4.60;;;;;;;11.00;50.13;102854.88;10469934;28;20508;-82
2021/12/17 16:48:29;;;;;;;7.07;5.10;;;;;;;10.60;50.46;102843.09;10472274;28;20247;-82
2021/12/17 16:53:32;;;;;;;8.00;5.70;;;;;;;11.24;49.43;102851.75;10518414;28;20434;-83
2021/12/17 16:58:34;;;;;;;5.87;5.00;;;;;;;10.47;50.58;102849.09;10525641;28;20210;-83
2021/12/17 17:03:37;;;;;;;8.03;6.03;;;;;;;10.77;51.28;102855.13;10536400;28;20222;-82
2021/12/17 17:08:40;;;;;;;7.30;5.57;;;;;;;10.46;51.36;102861.44;10492833;28;20252;-80
2021/12/17 17:13:43;;;;;;;19.50;12.83;;;;;;;10.87;50.20;102863.72;10533846;28;20249;-83
2021/12/17 17:18:45;;;;;;;11.73;8.03;;;;;;;10.85;50.44;102871.56;10506445;28;20207;-81
2021/12/17 17:23:48;;;;;;;10.23;7.23;;;;;;;10.53;51.81;102859.28;10525005;28;20199;-83
2021/12/17 17:28:51;;;;;;;11.23;8.70;;;;;;;10.84;50.40;102855.78;10500720;28;20240;-82
2021/12/17 17:33:53;;;;;;;11.20;8.10;;;;;;;10.96;49.95;102852.84;10506064;28;20223;-83
2021/12/17 17:38:57;;;;;;;11.57;7.87;;;;;;;10.92;50.63;102848.84;10512942;28;20195;-85
2021/12/17 17:44:00;;;;;;;12.87;7.93;;;;;;;10.90;50.82;102854.72;10493012;28;20200;-83
2021/12/17 17:49:04;;;;;;;9.50;7.73;;;;;;;10.66;51.36;102853.31;10514105;28;20226;-82
2021/12/17 17:54:06;;;;;;;13.10;9.43;;;;;;;10.90;50.77;102854.72;10528199;28;20215;-84
2021/12/17 17:59:08;;;;;;;15.30;10.43;;;;;;;10.62;50.28;102868.94;10514850;28;20601;-82
2021/12/17 18:04:10;;;;;;;15.30;10.90;;;;;;;10.84;49.47;102867.03;10487337;28;20299;-82
2021/12/17 18:09:13;;;;;;;19.77;12.00;;;;;;;10.87;50.57;102879.72;10506422;28;20319;-82
2021/12/17 18:14:16;;;;;;;16.03;12.47;;;;;;;10.88;50.15;102868.19;10520946;28;20293;-83
2021/12/17 18:19:18;;;;;;;15.83;12.03;;;;;;;10.84;50.80;102867.03;10485559;28;20242;-82
2021/12/17 18:24:22;;;;;;;10.83;8.60;;;;;;;10.97;50.75;102869.44;10496987;28;20751;-84
2021/12/17 18:29:25;;;;;;;10.17;7.37;;;;;;;10.88;49.87;102868.19;10495718;28;20635;-84
2021/12/17 18:34:28;;;;;;;8.80;7.27;;;;;;;11.07;50.43;102869.56;10490843;28;20299;-83
2021/12/17 18:39:36;;;;;;;10.53;8.57;;;;;;;11.11;50.53;102865.13;10475997;28;20514;-82
2021/12/17 18:44:39;;;;;;;8.60;6.97;;;;;;;10.98;51.18;102862.72;10488486;28;20229;-82
2021/12/17 18:49:41;;;;;;;11.27;7.43;;;;;;;11.04;50.37;102867.28;10496889;28;20231;-84
2021/12/17 18:54:44;;;;;;;10.30;7.73;;;;;;;10.38;52.91;102863.56;10513518;28;20230;-83
2021/12/17 18:59:46;;;;;;;11.27;7.60;;;;;;;10.66;51.80;102864.53;10495109;28;20295;-85
2021/12/17 19:04:49;;;;;;;15.07;10.13;;;;;;;10.33;52.85;102863.53;10475738;28;20280;-86
2021/12/17 19:09:51;;;;;;;13.27;8.97;;;;;;;10.70;51.56;102882.59;10479438;28;20552;-84
2021/12/17 19:14:53;;;;;;;11.97;8.83;;;;;;;11.14;50.16;102884.25;10484582;28;20990;-85
2021/12/17 19:20:27;;;;;;;18.00;10.67;;;;;;;10.62;53.30;102877.38;10483937;28;20591;-85
2021/12/17 19:25:24;;;;;;;24.17;13.90;;;;;;;10.40;54.48;102872.59;10479942;28;20295;-83
2021/12/17 19:30:26;;;;;;;25.47;14.03;;;;;;;10.34;53.09;102864.38;10506407;28;20252;-84
2021/12/17 19:35:28;;;;;;;22.97;13.90;;;;;;;10.97;52.64;102855.38;10481585;28;20226;-84
2021/12/17 19:40:31;;;;;;;17.93;11.03;;;;;;;11.09;51.37;102850.47;10489623;28;20724;-85
2021/12/17 19:45:33;;;;;;;18.50;11.07;;;;;;;11.19;51.32;102868.56;10505145;28;20234;-84
2021/12/17 19:50:35;;;;;;;24.10;13.43;;;;;;;11.05;51.45;102859.69;10480920;28;20667;-84
2021/12/17 19:55:42;;;;;;;23.63;13.60;;;;;;;11.11;51.75;102856.69;10498592;28;20612;-84
2021/12/17 20:00:46;;;;;;;20.60;12.27;;;;;;;10.74;53.04;102864.09;10490745;28;20244;-84
2021/12/17 20:05:49;;;;;;;25.47;14.80;;;;;;;11.08;51.70;102860.00;10463947;28;20239;-83
2021/12/17 20:10:51;;;;;;;25.40;15.90;;;;;;;10.88;52.65;102865.38;10517353;28;20314;-84
2021/12/17 20:15:55;;;;;;;22.30;13.87;;;;;;;10.74;52.53;102866.91;10476645;28;20231;-84
2021/12/17 20:20:57;;;;;;;23.23;14.83;;;;;;;10.85;52.00;102863.13;10485913;28;20310;-84
2021/12/17 20:26:02;;;;;;;27.00;17.37;;;;;;;10.78;52.53;102868.06;10494967;28;20283;-82
2021/12/17 20:31:05;;;;;;;25.80;18.53;;;;;;;10.42;54.03;102864.75;10487785;28;20254;-82
2021/12/17 20:36:07;;;;;;;26.93;17.83;;;;;;;10.65;53.15;102869.31;10477416;28;20287;-84
2021/12/17 20:41:10;;;;;;;22.67;16.13;;;;;;;11.08;52.20;102879.69;10495576;28;20667;-84
2021/12/17 20:46:15;;;;;;;22.30;16.30;;;;;;;10.68;53.70;102877.22;10476938;28;20519;-82
2021/12/17 20:51:17;;;;;;;19.37;13.80;;;;;;;10.89;53.01;102869.91;10476399;28;20247;-80
2021/12/17 20:56:19;;;;;;;18.27;12.10;;;;;;;11.05;52.92;102874.59;10488743;28;20234;-81
2021/12/17 21:01:22;;;;;;;16.23;11.87;;;;;;;10.76;54.34;102861.84;10527386;28;20268;-81
2021/12/17 21:06:27;;;;;;;12.17;9.27;;;;;;;11.03;53.51;102867.53;10514836;28;20283;-81
2021/12/17 21:11:31;;;;;;;12.03;9.20;;;;;;;11.05;52.85;102863.34;10508014;28;20226;-81
2021/12/17 21:16:33;;;;;;;12.60;9.13;;;;;;;10.98;53.55;102864.69;10505055;28;20636;-79
2021/12/17 21:21:36;;;;;;;14.03;9.37;;;;;;;11.03;53.54;102862.75;10509925;28;20195;-83
2021/12/17 21:26:41;;;;;;;14.33;9.40;;;;;;;10.73;55.33;102879.28;10514154;28;20624;-82
2021/12/17 21:31:46;;;;;;;12.47;8.90;;;;;;;11.02;54.35;102871.44;10503857;28;20654;-82
2021/12/17 21:36:49;;;;;;;14.13;9.37;;;;;;;10.96;54.71;102864.94;10511074;28;20198;-81
2021/12/17 21:41:51;;;;;;;12.63;8.43;;;;;;;11.21;53.41;102872.81;10519455;28;20584;-81
2021/12/17 21:46:54;;;;;;;11.90;8.73;;;;;;;10.91;54.80;102862.06;10516770;28;20194;-81
2021/12/17 21:51:56;;;;;;;11.80;8.70;;;;;;;10.90;55.05;102860.34;10514835;28;20211;-81
2021/12/17 21:56:58;;;;;;;12.47;8.87;;;;;;;10.78;55.12;102856.81;10491998;28;20198;-81
2021/12/17 22:02:01;;;;;;;12.67;8.77;;;;;;;10.88;54.89;102867.38;10516067;28;20218;-81
2021/12/17 22:07:04;;;;;;;10.73;8.70;;;;;;;10.77;55.09;102866.38;10509336;28;20485;-82
2021/12/17 22:12:08;;;;;;;14.23;9.50;;;;;;;10.84;55.45;102866.19;10541734;28;20403;-82
2021/12/17 22:17:10;;;;;;;15.17;9.80;;;;;;;10.58;56.84;102873.41;10506047;28;20726;-79
2021/12/17 22:22:14;;;;;;;15.50;10.17;;;;;;;10.57;56.38;102871.72;10506589;28;20199;-81
2021/12/17 22:27:17;;;;;;;13.67;9.67;;;;;;;11.02;55.36;102875.13;10525458;28;20202;-82
2021/12/17 22:32:19;;;;;;;14.57;9.63;;;;;;;11.11;55.14;102876.38;10540078;28;20687;-79
2021/12/17 22:37:21;;;;;;;14.03;10.00;;;;;;;11.00;55.63;102868.09;10509079;28;20220;-80
2021/12/17 22:42:23;;;;;;;11.77;9.03;;;;;;;11.23;55.39;102864.09;10524700;28;20198;-79
2021/12/17 22:47:26;;;;;;;13.60;9.30;;;;;;;10.89;56.02;102857.78;10540490;28;20213;-79
2021/12/17 22:52:28;;;;;;;14.93;9.43;;;;;;;10.66;56.75;102850.47;10521072;28;20264;-80
2021/12/17 22:57:30;;;;;;;13.83;9.40;;;;;;;11.17;55.42;102848.28;10535745;28;20248;-80
2021/12/17 23:02:32;;;;;;;13.73;8.70;;;;;;;10.93;56.74;102848.56;10506750;28;20219;-79
2021/12/17 23:07:55;;;;;;;15.33;9.97;;;;;;;10.92;56.18;102841.25;10504580;28;20199;-80
2021/12/17 23:12:57;;;;;;;13.93;9.33;;;;;;;10.99;55.57;102846.69;10537424;28;20314;-80
2021/12/17 23:17:59;;;;;;;13.30;8.57;;;;;;;10.34;57.94;102845.56;10523916;28;20230;-80
2021/12/17 23:23:02;;;;;;;12.60;7.73;;;;;;;10.79;57.05;102838.84;10519538;28;20591;-80
2021/12/17 23:28:06;;;;;;;12.80;8.60;;;;;;;10.63;57.75;102836.94;10519706;28;20260;-80
2021/12/17 23:33:37;;;;;;;16.27;9.53;;;;;;;11.09;55.94;102844.84;10507349;28;20222;-80
2021/12/17 23:38:31;;;;;;;13.27;9.83;;;;;;;11.08;56.27;102839.47;10499989;28;20254;-82
2021/12/17 23:43:33;;;;;;;14.77;8.90;;;;;;;11.14;55.75;102844.03;10516559;28;20499;-82
2021/12/17 23:48:35;;;;;;;17.10;9.70;;;;;;;10.83;57.35;102834.41;10514856;28;20665;-82
2021/12/17 23:53:38;;;;;;;17.43;10.13;;;;;;;11.24;55.88;102832.88;10520368;28;20222;-82
2021/12/17 23:58:40;;;;;;;16.23;10.03;;;;;;;10.79;57.42;102838.84;10502146;28;20651;-83
